createdAt,value
2019-05-02T07:43:06.017Z,72.00
2019-05-02T07:44:05.952Z,72.00
2019-05-02T07:45:09.435Z,72.00
2019-05-02T07:46:05.913Z,76.00
2019-05-02T07:47:05.921Z,76.00
2019-05-02T07:48:05.968Z,72.00
2019-05-02T07:49:05.885Z,76.00
2019-05-02T07:50:10.373Z,72.00
2019-05-02T07:51:05.927Z,76.00
2019-05-02T07:52:05.858Z,68.00
2019-05-02T07:53:30.712Z,72.00
2019-05-02T07:54:30.481Z,76.00
2019-05-02T07:55:30.899Z,72.00
2019-05-02T07:56:30.419Z,80.00
2019-05-02T07:57:37.868Z,80.00
2019-05-02T07:58:38.423Z,80.00
2019-05-02T07:59:38.800Z,84.00
2019-05-02T08:00:38.493Z,88.00
2019-05-02T08:01:37.803Z,88.00
2019-05-02T08:02:37.790Z,92.00
2019-05-02T08:03:37.801Z,104.00
2019-05-02T08:04:37.753Z,108.00
2019-05-02T08:05:37.752Z,112.00
2019-05-02T08:06:40.129Z,108.00
2019-05-02T08:07:38.954Z,108.00
2019-05-02T08:08:38.451Z,108.00
2019-05-02T08:09:39.141Z,116.00
2019-05-02T08:10:38.681Z,120.00
2019-05-02T08:11:38.555Z,132.00
2019-05-02T08:12:37.757Z,136.00
2019-05-02T08:13:37.685Z,136.00
2019-05-02T08:14:37.634Z,136.00
2019-05-02T08:15:37.733Z,132.00
2019-05-02T08:16:37.775Z,132.00
2019-05-02T08:17:37.613Z,140.00
2019-05-02T08:18:37.607Z,136.00
2019-05-02T08:19:41.620Z,136.00
2019-05-02T08:20:39.000Z,140.00
2019-05-02T08:21:37.563Z,140.00
2019-05-02T08:22:37.552Z,136.00
2019-05-02T08:23:37.542Z,140.00
2019-05-02T08:24:38.244Z,136.00
2019-05-02T08:25:41.458Z,132.00
2019-05-02T08:26:38.549Z,128.00
2019-05-02T08:27:44.472Z,120.00
2019-05-02T08:28:37.508Z,112.00
2019-05-02T08:29:37.467Z,112.00
2019-05-02T08:30:40.435Z,112.00
2019-05-02T08:31:37.445Z,100.00
2019-05-02T08:32:37.462Z,104.00
2019-05-02T08:33:37.421Z,104.00
2019-05-02T08:34:37.580Z,104.00
2019-05-02T08:35:39.264Z,100.00
2019-05-02T08:36:37.395Z,100.00
2019-05-02T08:37:41.089Z,96.00
2019-05-02T08:38:38.403Z,92.00
2019-05-02T08:39:37.362Z,88.00
2019-05-02T08:40:37.346Z,92.00
2019-05-02T08:41:37.391Z,88.00
2019-05-02T08:42:37.334Z,84.00
2019-05-02T08:43:40.312Z,84.00
2019-05-02T08:44:50.337Z,80.00
2019-05-02T08:45:39.554Z,80.00
2019-05-02T08:46:37.280Z,80.00
2019-05-02T08:47:37.263Z,84.00
2019-05-02T08:48:41.741Z,84.00
2019-05-02T08:49:38.254Z,88.00
2019-05-02T08:50:37.239Z,92.00
2019-05-02T08:51:37.234Z,92.00
2019-05-02T08:52:42.231Z,92.00
2019-05-02T08:53:38.255Z,92.00
2019-05-02T08:54:38.125Z,96.00
2019-05-02T08:55:41.357Z,92.00
2019-05-02T08:56:38.164Z,92.00
2019-05-02T08:57:37.152Z,92.00
2019-05-02T08:58:49.762Z,92.00
2019-05-02T08:59:37.129Z,88.00
2019-05-02T09:00:39.300Z,88.00
2019-05-02T09:01:37.106Z,88.00
2019-05-02T09:02:41.468Z,132.00
2019-05-02T09:46:24.540Z,724.00
2019-05-02T09:47:27.337Z,716.00
2019-05-02T09:48:26.875Z,720.00
2019-05-02T09:49:24.341Z,716.00
2019-05-02T09:50:29.661Z,736.00
2019-05-02T09:51:25.224Z,708.00
2019-05-02T09:52:24.163Z,728.00
2019-05-02T09:53:25.509Z,740.00
2019-05-02T09:54:24.001Z,732.00
2019-05-02T09:55:23.922Z,408.00
2019-05-02T09:56:23.862Z,456.00
2019-05-02T09:57:39.287Z,736.00
2019-05-02T09:58:39.271Z,732.00
2019-05-02T09:59:43.470Z,724.00
2019-05-02T10:00:41.814Z,708.00
2019-05-02T10:01:39.270Z,732.00
2019-05-02T10:02:39.246Z,712.00
2019-05-02T10:03:39.940Z,728.00
